x

Buoy A01 - Mass. Bay/stellwagen (44029) Wave Buoy

11:04 - Mon 29th May 2017 All times are EDT. -4 hours from GMT.

  • Sig Wave height 3.6ft
  • Peak Period 6s
  • Wind
    11mph, 13mph gusts
  • Sea Temp 51°f
  • Air Temp 49°f
  • Sea Pressure 1020mb
  • Buoy A01 - Mass. Bay/stellwagen
  • Buoy A01 - Mass. Bay/stellwagen

More Historic Weather Station data

Upgrade to MSW Pro to gain access to the past 30 days of data for over 8000 Wavebouys and Weather Stations around the globe.

Join Pro

Comparision Forecast

View Surf forecast
   
lun. 05/29 11:04 3.5ft 6s 11 13 mph 1020mb 51f 49f
10:04 3.5ft 6s 11 13 mph 1020mb 51f 49f
9:04 3.5ft 7s 11 13 mph 1019.8mb 51f 49f
8:04 3.5ft 6s 11 13 mph 1019.4mb 51f 49f
7:04 3ft 6s 13 18 mph 1018.7mb 51f 49f
6:04 3.5ft 7s 13 16 mph 1018.4mb 51f 49f
5:04 3.5ft 6s 13 16 mph 1018.1mb 51f 49f
4:04  -   -  13 18 mph 1017mb 51f 49f
3:04 4ft 6s 11 13 mph 1017mb 51f 49f
2:04 3.5ft 5s 11 16 mph 1016.7mb 51f 49f
1:04  -   -  16 18 mph 1016.5mb 51f 48f
12:04 3.5ft 5s 18 20 mph 1016.6mb 51f 49f
11:04 3.5ft 5s 16 20 mph 1016.2mb 51f 49f
10:04 4ft 4s 18 20 mph 1016.2mb 51f 48f
9:04 3ft 5s 16 18 mph 1016.8mb 51f 48f
8:04 3.5ft 4s 13 18 mph 1016.3mb 51f 48f
7:04 2.5ft 4s 16 20 mph 1016.5mb 51f 48f
6:04 2.5ft 4s 13 16 mph 1015.8mb 51f 50f
5:04 2.5ft 4s 11 13 mph 1015.6mb 51f 50f
4:04 2ft 8s 13 18 mph 1015.4mb 51f 50f
3:04 2ft 8s 11 13 mph 1015mb 51f 51f
2:04 2.5ft 8s 9 9 mph 1014.8mb 51f 52f
1:04  -   -  11 13 mph 1015.1mb 51f 52f
12:04 3.5ft 5s 13 16 mph 1015mb 51f 53f
dim. 05/28 11:04 4ft 8s 16 18 mph 1015mb 51f 53f
10:04 4ft 5s 16 18 mph 1015.1mb 51f 53f
9:04 4ft 4s 16 18 mph 1015.2mb 51f 53f
8:04 4.5ft 4s 13 16 mph 1014.9mb 51f 53f
7:04 5.5ft 5s 13 18 mph 1014.5mb 51f 54f
6:04 5ft 5s 16 20 mph 1014.5mb 52f 54f
5:04 3.5ft 5s 16 18 mph 1014.5mb 52f 53f
4:04 3.5ft 5s 16 20 mph 1014.3mb 52f 53f
3:04 3ft 4s 16 20 mph 1014.9mb 52f 52f
2:04 2.5ft 8s 16 20 mph 1014.9mb 52f 52f
1:04 2.5ft 7s 16 18 mph 1014.6mb 53f 53f
12:04 2ft 8s 11 16 mph 1014.5mb 52f 53f
11:04 2ft 8s 9 11 mph 1014.4mb 52f 54f
10:04 1.6ft 8s 7 7 mph 1014.3mb 52f 54f
9:04 2ft 9s 4 7 mph 1014.7mb 51f 53f
8:04 2.5ft 9s 7 9 mph 1014.8mb 51f 53f
7:04  -   -  9 11 mph 1013.7mb 51f 54f
6:04 2ft 3s 9 11 mph 1013.1mb 51f 52f
5:04 2.5ft 3s 9 9 mph 1012.7mb 51f 52f
4:04 2.5ft 3s 9 11 mph 1012.6mb 51f 52f
3:04 2.5ft 3s 11 13 mph 1012mb 51f 53f
2:04 2ft 8s 11 13 mph 1012.2mb 51f 52f
1:04 2ft 9s 9 11 mph 1012.7mb 51f 53f
12:04 2.5ft 9s 9 11 mph 1013.2mb 51f 53f
sam. 05/27 11:04 2.5ft 9s 9 11 mph 1013.2mb 51f 52f
10:04 2.5ft 8s 11 11 mph 1013.1mb 51f 52f
9:04 2.5ft 9s 9 11 mph 1013mb 51f 52f
8:04 2ft 8s 11 13 mph 1012.7mb 51f 51f
7:04 2ft 9s 11 11 mph 1012.2mb 51f 52f
6:04 2ft 9s 11 13 mph 1011.6mb 51f 52f
5:04 1.6ft 8s 9 9 mph 1011.8mb 52f 52f
4:04 1.6ft 8s 9 11 mph 1011.6mb 51f 52f
3:04 1.6ft 10s 9 11 mph 1011.3mb 51f 52f
2:04 1.6ft 8s 9 9 mph 1011mb 52f 53f
1:04 1.6ft 7s 7 7 mph 1010.8mb 52f 52f
12:04 2ft 7s 7 9 mph 1010.6mb 51f 52f
11:04 2ft 8s 7 7 mph 1010.8mb 51f 53f
10:04 1.6ft 8s 9 9 mph 1010.2mb 51f 54f
9:04 2ft 8s  -  2 mph 1009.8mb 51f 55f
8:04 1.6ft 8s 4 4 mph 1009.6mb 50f 52f
7:04 2ft 8s 4 4 mph 1009.2mb 50f 52f
6:04 1.6ft 8s 4 4 mph 1009mb 49f 51f
5:04 2ft 8s 7 9 mph 1008.1mb 50f 51f
4:04 2ft 8s 7 9 mph 1007.2mb 49f 51f
3:04 2ft 7s 7 9 mph 1006.9mb 49f 51f
2:04 2ft 8s 7 7 mph 1006.6mb 49f 50f
1:04 2.5ft 8s 7 7 mph 1006.4mb 49f 51f
12:04 2.5ft 9s 7 7 mph 1006.1mb 49f 50f
ven. 05/26 11:04 3.5ft 8s 4 4 mph 1006mb 49f 50f
10:04 3.5ft 8s 2 2 mph 1005.4mb 49f 50f
9:04 3ft 8s 2 2 mph 1004.7mb 49f 50f
8:04 3.5ft 8s 2 2 mph 1004.1mb 50f 50f
7:04 3.5ft 8s 2 4 mph 1003.4mb 49f 50f
6:04 4.5ft 7s 4 7 mph 1002.2mb 50f 50f
5:04 3.5ft 8s 7 7 mph 1001.3mb 51f 50f
4:04 4ft 8s 11 11 mph 1000.6mb 51f 50f
3:04 4ft 7s 11 13 mph 1000mb 51f 50f
2:04 4.5ft 8s 18 20 mph 998.9mb 51f 50f
1:04 6ft 8s 20 25 mph 998.3mb 50f 50f
12:04 6ft 8s 27 34 mph 997.4mb 49f 49f
11:04 5.5ft 8s 27 31 mph 996.9mb 49f 48f
10:04 6ft 8s 20 25 mph 996.6mb 49f 48f
9:04 6ft 8s 18 22 mph 996.8mb 49f 49f
8:04 6ft 8s 16 18 mph 996.8mb 49f 49f
7:04 6.5ft 8s 18 20 mph 997.5mb 50f 49f
6:04 6ft 8s 22 27 mph 997.7mb 50f 49f